createdAt,value
2017-11-16T00:01:10.593Z,12.47
2017-11-16T00:03:39.156Z,12.80
2017-11-16T00:06:06.581Z,10.33
2017-11-16T00:08:34.803Z,11.27
2017-11-16T00:11:02.217Z,10.70
2017-11-16T00:13:30.865Z,10.43
2017-11-16T00:15:58.302Z,11.40
2017-11-16T00:18:25.744Z,10.73
2017-11-16T00:20:53.508Z,10.93
2017-11-16T00:23:20.922Z,9.97
2017-11-16T00:25:50.861Z,9.27
2017-11-16T00:28:19.037Z,9.77
2017-11-16T00:30:46.466Z,9.80
2017-11-16T00:33:13.887Z,10.13
2017-11-16T00:35:41.321Z,8.93
2017-11-16T00:38:08.737Z,8.50
2017-11-16T00:40:36.161Z,9.80
2017-11-16T00:43:03.581Z,8.60
2017-11-16T00:45:31.012Z,9.43
2017-11-16T00:47:58.440Z,7.80
2017-11-16T00:50:25.871Z,9.23
2017-11-16T00:52:55.741Z,8.93
2017-11-16T00:55:23.959Z,8.73
2017-11-16T00:57:51.377Z,8.63
2017-11-16T01:00:19.574Z,9.67
2017-11-16T01:02:46.994Z,9.07
2017-11-16T01:05:14.666Z,9.97
2017-11-16T01:07:43.272Z,9.70
2017-11-16T01:10:11.409Z,9.50
2017-11-16T01:12:38.839Z,10.20
2017-11-16T01:15:06.257Z,10.60
2017-11-16T01:17:34.226Z,9.23
2017-11-16T01:20:01.660Z,10.03
2017-11-16T01:22:29.097Z,10.87
2017-11-16T01:24:56.526Z,8.83
2017-11-16T01:27:23.961Z,10.73
2017-11-16T01:29:51.623Z,10.43
2017-11-16T01:32:19.811Z,10.90
2017-11-16T01:34:47.269Z,10.37
2017-11-16T01:37:14.703Z,10.73
2017-11-16T01:39:42.132Z,9.57
2017-11-16T01:42:09.562Z,8.97
2017-11-16T01:44:37.000Z,10.50
2017-11-16T01:47:04.428Z,11.50
2017-11-16T01:49:31.862Z,9.43
2017-11-16T01:51:59.283Z,10.13
2017-11-16T01:54:26.706Z,9.87
2017-11-16T01:56:54.138Z,10.97
2017-11-16T01:59:22.329Z,10.77
2017-11-16T02:01:49.767Z,10.60
2017-11-16T02:04:17.199Z,12.03
2017-11-16T02:06:44.636Z,11.77
2017-11-16T02:09:12.071Z,11.50
2017-11-16T02:11:39.507Z,12.30
2017-11-16T02:14:07.717Z,12.43
2017-11-16T02:16:35.138Z,9.40
2017-11-16T02:19:03.353Z,12.57
2017-11-16T02:21:30.778Z,11.77
2017-11-16T02:23:58.213Z,11.90
2017-11-16T02:26:26.415Z,12.47
2017-11-16T02:28:53.851Z,12.73
2017-11-16T02:31:22.057Z,12.30
2017-11-16T02:33:49.487Z,12.97
2017-11-16T02:36:18.232Z,13.47
2017-11-16T02:38:45.668Z,13.60
2017-11-16T02:41:13.093Z,12.70
2017-11-16T02:43:40.529Z,12.03
2017-11-16T02:46:07.961Z,12.97
2017-11-16T02:48:35.401Z,14.20
2017-11-16T02:51:02.831Z,12.97
2017-11-16T02:53:31.045Z,11.90
2017-11-16T02:55:58.480Z,11.13
2017-11-16T02:58:25.928Z,11.80
2017-11-16T03:00:53.352Z,11.37
2017-11-16T03:03:21.563Z,12.67
2017-11-16T03:05:48.994Z,13.00
2017-11-16T03:08:17.202Z,11.50
2017-11-16T03:10:44.641Z,12.53
2017-11-16T03:13:12.126Z,11.27
2017-11-16T03:15:39.558Z,10.67
2017-11-16T03:18:06.985Z,13.17
2017-11-16T03:20:35.197Z,11.73
2017-11-16T03:23:02.625Z,12.43
2017-11-16T03:25:30.829Z,11.53
2017-11-16T03:27:58.261Z,11.77
2017-11-16T03:30:26.468Z,9.93
2017-11-16T03:32:53.905Z,11.00
2017-11-16T03:35:21.344Z,11.07
2017-11-16T03:37:49.538Z,10.53
2017-11-16T03:40:16.983Z,11.20
2017-11-16T03:42:45.180Z,9.27
2017-11-16T03:45:15.042Z,9.57
2017-11-16T03:47:42.460Z,9.57
2017-11-16T03:50:09.907Z,9.00
2017-11-16T03:52:37.329Z,8.40
2017-11-16T03:55:05.528Z,7.10
2017-11-16T03:57:35.545Z,7.33
2017-11-16T04:00:06.086Z,7.10
2017-11-16T04:02:33.500Z,7.43
2017-11-16T04:05:01.705Z,8.53
2017-11-16T04:07:29.124Z,8.33
2017-11-16T04:09:56.547Z,7.50
2017-11-16T04:12:24.378Z,8.17
2017-11-16T04:14:51.818Z,9.63
2017-11-16T04:17:20.845Z,9.33
2017-11-16T04:19:48.293Z,7.70
2017-11-16T04:22:15.717Z,8.53
2017-11-16T04:25:01.143Z,6.87
2017-11-16T04:27:28.570Z,8.50
2017-11-16T04:29:56.774Z,8.63
2017-11-16T04:32:24.208Z,7.47
2017-11-16T04:34:51.919Z,8.77
2017-11-16T04:37:19.879Z,9.53
2017-11-16T04:39:47.315Z,9.20
2017-11-16T04:42:15.014Z,8.40
2017-11-16T04:44:42.422Z,6.67
2017-11-16T04:47:11.407Z,7.60
2017-11-16T04:49:38.838Z,7.67
2017-11-16T04:52:06.261Z,7.07
2017-11-16T04:54:33.691Z,7.93
2017-11-16T04:57:01.114Z,6.97
2017-11-16T04:59:29.296Z,5.80
2017-11-16T05:01:57.491Z,7.00
2017-11-16T05:04:24.914Z,7.33
2017-11-16T05:06:52.346Z,7.40
2017-11-16T05:09:19.771Z,7.13
2017-11-16T05:11:47.206Z,5.30
2017-11-16T05:14:14.634Z,7.27
2017-11-16T05:16:43.041Z,6.90
2017-11-16T05:19:11.248Z,7.00
2017-11-16T05:21:45.999Z,7.50
2017-11-16T05:24:13.430Z,8.70
2017-11-16T05:26:40.845Z,7.60
2017-11-16T05:29:09.042Z,8.20
2017-11-16T05:31:36.481Z,8.40
2017-11-16T05:34:04.672Z,8.13
2017-11-16T05:36:32.099Z,7.90
2017-11-16T05:38:59.539Z,10.07
2017-11-16T05:41:27.057Z,8.83
2017-11-16T05:43:54.472Z,10.33
2017-11-16T05:46:23.190Z,8.33
2017-11-16T05:48:50.614Z,9.80
2017-11-16T05:51:18.814Z,9.60
2017-11-16T05:53:47.015Z,8.77
2017-11-16T05:56:19.837Z,9.20
2017-11-16T05:58:47.271Z,8.87
2017-11-16T06:01:14.718Z,9.20
2017-11-16T06:03:42.158Z,9.27
2017-11-16T06:06:09.580Z,9.63
2017-11-16T06:08:37.794Z,10.00
2017-11-16T06:11:05.230Z,9.80
2017-11-16T06:13:32.653Z,9.17
2017-11-16T06:16:00.091Z,9.03
2017-11-16T06:18:27.643Z,10.70
2017-11-16T06:20:55.095Z,10.97
2017-11-16T06:23:28.645Z,11.13
2017-11-16T06:25:56.061Z,13.10
2017-11-16T06:28:23.494Z,14.03
2017-11-16T06:30:53.606Z,14.20
2017-11-16T06:33:21.047Z,13.83
2017-11-16T06:35:56.977Z,13.03
2017-11-16T06:38:24.418Z,11.70
2017-11-16T06:40:51.837Z,14.37
2017-11-16T06:43:20.305Z,15.87
2017-11-16T06:45:49.094Z,14.27
2017-11-16T06:48:16.953Z,16.73
2017-11-16T06:50:44.373Z,17.27
2017-11-16T06:53:12.355Z,18.93
2017-11-16T06:55:39.779Z,17.70
2017-11-16T06:58:07.198Z,19.50
2017-11-16T07:00:34.627Z,18.90
2017-11-16T07:03:02.060Z,19.53
2017-11-16T07:05:29.739Z,20.60
2017-11-16T07:07:57.162Z,18.87
2017-11-16T07:10:24.586Z,21.07
2017-11-16T07:12:52.014Z,20.83
2017-11-16T07:15:20.045Z,20.10
2017-11-16T07:17:47.468Z,20.10
2017-11-16T07:20:14.890Z,22.10
2017-11-16T07:22:42.853Z,21.17
2017-11-16T07:25:10.276Z,21.70
2017-11-16T07:27:38.471Z,23.50
2017-11-16T07:30:05.894Z,22.37
2017-11-16T07:32:43.955Z,21.50
2017-11-16T07:35:28.476Z,21.37
2017-11-16T07:38:08.494Z,20.83
2017-11-16T07:40:35.926Z,20.37
2017-11-16T07:43:05.253Z,20.73
2017-11-16T07:45:33.033Z,19.83
2017-11-16T07:48:01.220Z,21.70
2017-11-16T07:50:29.436Z,19.67
2017-11-16T07:52:57.217Z,20.60
2017-11-16T07:55:24.643Z,20.30
2017-11-16T07:57:52.358Z,20.40
2017-11-16T08:00:19.790Z,20.93
2017-11-16T08:02:47.333Z,20.40
2017-11-16T08:05:14.769Z,20.53
2017-11-16T08:07:42.193Z,19.13
2017-11-16T08:10:11.187Z,20.60
2017-11-16T08:12:39.399Z,21.17
2017-11-16T08:15:06.819Z,19.53
2017-11-16T08:17:38.370Z,19.00
2017-11-16T08:20:05.784Z,19.37
2017-11-16T08:22:36.810Z,18.23
2017-11-16T08:25:06.164Z,17.13
2017-11-16T08:27:33.591Z,15.27
2017-11-16T08:30:01.014Z,15.30
2017-11-16T08:32:28.436Z,15.60
2017-11-16T08:34:56.630Z,15.30
2017-11-16T08:37:24.821Z,15.40
2017-11-16T08:39:52.249Z,16.53
2017-11-16T08:42:20.446Z,15.30
2017-11-16T08:44:48.401Z,16.00
2017-11-16T08:47:16.594Z,15.47
2017-11-16T08:49:44.029Z,15.37
2017-11-16T08:52:12.102Z,15.10
2017-11-16T08:54:40.285Z,14.20
2017-11-16T08:57:07.709Z,13.50
2017-11-16T08:59:35.764Z,13.83
2017-11-16T09:02:06.715Z,13.70
2017-11-16T09:04:34.141Z,13.00
2017-11-16T09:07:01.690Z,12.63
2017-11-16T09:09:29.161Z,13.97
2017-11-16T09:11:57.440Z,13.77
2017-11-16T09:14:24.917Z,13.40
2017-11-16T09:16:52.407Z,14.40
2017-11-16T09:19:28.106Z,14.03
2017-11-16T09:21:56.626Z,13.43
2017-11-16T09:24:24.117Z,12.40
2017-11-16T09:26:51.608Z,13.03
2017-11-16T09:29:19.129Z,13.27
2017-11-16T09:31:47.606Z,11.97
2017-11-16T09:34:15.120Z,10.87
2017-11-16T09:36:42.623Z,11.93
2017-11-16T09:39:10.983Z,12.30
2017-11-16T09:41:38.470Z,12.27
2017-11-16T09:44:05.969Z,11.53
2017-11-16T09:46:33.568Z,11.83
2017-11-16T09:49:01.957Z,10.87
2017-11-16T09:51:30.691Z,11.67
2017-11-16T09:54:08.666Z,11.40
2017-11-16T09:56:36.182Z,10.17
2017-11-16T09:59:03.648Z,9.67
2017-11-16T10:01:31.049Z,10.97
2017-11-16T10:03:58.484Z,10.70
2017-11-16T10:06:25.903Z,9.77
2017-11-16T10:08:53.335Z,10.27
2017-11-16T10:11:20.758Z,8.73
2017-11-16T10:13:48.185Z,9.23
2017-11-16T10:16:16.373Z,9.73
2017-11-16T10:18:44.561Z,10.17
2017-11-16T10:21:13.933Z,10.67
2017-11-16T10:23:41.785Z,10.20
2017-11-16T10:26:09.202Z,10.13
2017-11-16T10:28:38.474Z,9.03
2017-11-16T10:31:06.672Z,11.57
2017-11-16T10:33:34.505Z,9.60
2017-11-16T10:36:02.761Z,9.27
2017-11-16T10:38:30.324Z,9.63
2017-11-16T10:40:57.752Z,9.40
2017-11-16T10:43:25.157Z,8.93
2017-11-16T10:45:53.361Z,9.63
2017-11-16T10:48:23.324Z,10.27
2017-11-16T10:50:57.325Z,9.93
2017-11-16T10:53:24.748Z,10.07
2017-11-16T10:55:52.262Z,10.37
2017-11-16T10:58:19.669Z,10.03
2017-11-16T11:00:47.101Z,10.30
2017-11-16T11:03:14.529Z,9.50
2017-11-16T11:05:41.954Z,9.73
2017-11-16T11:08:13.027Z,9.93
2017-11-16T11:10:40.446Z,9.73
2017-11-16T11:13:07.862Z,9.70
2017-11-16T11:15:35.293Z,10.33
2017-11-16T11:18:02.713Z,10.47
2017-11-16T11:20:30.693Z,10.13
2017-11-16T11:22:58.881Z,13.37
2017-11-16T11:25:26.316Z,13.23
2017-11-16T11:27:53.743Z,12.23
2017-11-16T11:30:22.058Z,11.47
2017-11-16T11:32:49.762Z,11.87
2017-11-16T11:35:17.954Z,12.10
2017-11-16T11:37:48.769Z,11.87
2017-11-16T11:40:16.190Z,11.47
2017-11-16T11:42:45.217Z,12.87
2017-11-16T11:45:13.402Z,13.63
2017-11-16T11:47:41.595Z,13.97
2017-11-16T11:50:09.909Z,14.53
2017-11-16T11:52:39.886Z,13.67
2017-11-16T11:55:07.847Z,11.80
2017-11-16T11:57:35.279Z,14.13
2017-11-16T12:00:02.701Z,13.47
2017-11-16T12:02:34.397Z,13.57
2017-11-16T12:05:01.825Z,15.27
2017-11-16T12:07:29.253Z,16.17
2017-11-16T12:09:56.675Z,14.63
2017-11-16T12:12:24.866Z,13.30
2017-11-16T12:14:52.289Z,15.50
2017-11-16T12:17:19.717Z,16.80
2017-11-16T12:19:48.369Z,15.67
2017-11-16T12:22:15.798Z,15.57
2017-11-16T12:24:44.145Z,16.17
2017-11-16T12:27:11.586Z,17.80
2017-11-16T12:29:39.019Z,17.07
2017-11-16T12:32:06.442Z,18.13
2017-11-16T12:34:40.945Z,18.50
2017-11-16T12:37:08.474Z,17.23
2017-11-16T12:39:36.326Z,17.43
2017-11-16T12:42:03.739Z,16.50
2017-11-16T12:44:33.698Z,17.47
2017-11-16T12:47:01.478Z,15.10
2017-11-16T12:49:28.915Z,16.73
2017-11-16T12:51:56.334Z,14.87
2017-11-16T12:54:23.753Z,15.40
2017-11-16T12:56:52.170Z,15.70
2017-11-16T12:59:19.599Z,15.03
2017-11-16T13:01:47.019Z,15.07
2017-11-16T13:04:14.445Z,14.63
2017-11-16T13:06:42.640Z,15.77
2017-11-16T13:09:10.840Z,16.13
2017-11-16T13:11:38.820Z,16.10
2017-11-16T13:14:06.828Z,17.30
2017-11-16T13:16:35.205Z,16.90
2017-11-16T13:19:08.096Z,15.53
2017-11-16T13:21:36.319Z,16.13
2017-11-16T13:24:03.745Z,14.87
2017-11-16T13:26:31.936Z,14.97
2017-11-16T13:28:59.366Z,13.37
2017-11-16T13:31:31.582Z,13.07
2017-11-16T13:33:59.429Z,15.80
2017-11-16T13:36:27.294Z,15.73
2017-11-16T13:38:55.282Z,16.50
2017-11-16T13:41:22.711Z,17.07
2017-11-16T13:43:50.129Z,18.20
2017-11-16T13:46:18.085Z,16.77
2017-11-16T13:51:42.656Z,20.63
2017-11-16T13:54:10.100Z,23.13
2017-11-16T13:56:37.529Z,22.23
2017-11-16T13:59:04.984Z,22.63
2017-11-16T14:01:32.406Z,22.67
2017-11-16T14:04:00.130Z,24.20
2017-11-16T14:06:28.867Z,24.47
2017-11-16T14:08:56.273Z,21.00
2017-11-16T14:11:24.474Z,21.37
2017-11-16T14:13:51.888Z,22.40
2017-11-16T14:16:19.918Z,19.43
2017-11-16T14:18:47.352Z,21.63
2017-11-16T14:21:14.778Z,21.27
2017-11-16T14:23:42.593Z,20.87
2017-11-16T14:26:10.623Z,20.87
2017-11-16T14:28:54.989Z,22.70
2017-11-16T14:31:22.409Z,24.93
2017-11-16T14:33:49.880Z,25.13
2017-11-16T14:36:17.311Z,26.63
2017-11-16T14:38:44.743Z,29.93
2017-11-16T14:41:12.310Z,28.40
2017-11-16T14:43:39.839Z,27.67
2017-11-16T14:46:07.283Z,28.30
2017-11-16T14:48:36.626Z,28.93
2017-11-16T14:51:04.044Z,26.80
2017-11-16T14:53:31.482Z,26.83
2017-11-16T14:55:58.898Z,27.17
2017-11-16T14:58:26.318Z,25.80
2017-11-16T15:00:54.325Z,27.87
2017-11-16T15:03:21.755Z,27.53
2017-11-16T15:05:49.168Z,26.90
2017-11-16T15:08:16.592Z,28.70
2017-11-16T15:10:46.563Z,27.33
2017-11-16T15:13:14.749Z,28.83
2017-11-16T15:15:42.982Z,26.47
2017-11-16T15:18:10.409Z,26.83
2017-11-16T15:20:37.829Z,28.63
2017-11-16T15:23:06.032Z,29.63
2017-11-16T15:25:33.445Z,29.30
2017-11-16T15:28:15.753Z,31.80
2017-11-16T15:30:44.753Z,32.20
2017-11-16T15:33:13.218Z,29.37
2017-11-16T15:35:41.254Z,29.50
2017-11-16T15:38:08.675Z,30.97
2017-11-16T15:40:36.090Z,30.00
2017-11-16T15:43:03.521Z,31.17
2017-11-16T15:45:30.955Z,28.73
2017-11-16T15:47:58.390Z,27.90
2017-11-16T15:50:26.582Z,31.97
2017-11-16T15:52:54.011Z,32.70
2017-11-16T15:55:22.198Z,33.80
2017-11-16T15:57:50.946Z,32.13
2017-11-16T16:00:19.031Z,34.10
2017-11-16T16:02:46.502Z,33.47
2017-11-16T16:05:14.699Z,31.07
2017-11-16T16:07:43.606Z,31.63
2017-11-16T16:10:11.030Z,31.50
2017-11-16T16:12:39.501Z,29.97
2017-11-16T16:15:06.935Z,29.57
2017-11-16T16:17:34.362Z,31.10
2017-11-16T16:20:02.178Z,30.90
2017-11-16T16:22:30.150Z,29.87
2017-11-16T16:24:57.573Z,30.77
2017-11-16T16:27:31.522Z,30.47
2017-11-16T16:30:03.345Z,31.73
2017-11-16T16:32:31.812Z,31.77
2017-11-16T16:34:59.515Z,31.87
2017-11-16T16:37:26.969Z,29.87
2017-11-16T16:39:54.417Z,31.53
2017-11-16T16:42:21.836Z,31.17
2017-11-16T16:44:49.261Z,32.80
2017-11-16T16:47:17.459Z,35.50
2017-11-16T16:49:44.926Z,36.63
2017-11-16T16:52:12.408Z,36.90
2017-11-16T16:54:39.841Z,34.20
2017-11-16T16:57:08.007Z,35.60
2017-11-16T16:59:35.430Z,32.40
2017-11-16T17:02:03.625Z,33.77
2017-11-16T17:04:31.310Z,34.43
2017-11-16T17:06:58.725Z,32.33
2017-11-16T17:09:27.350Z,32.63
2017-11-16T17:11:55.529Z,32.00
2017-11-16T17:14:22.958Z,31.50
2017-11-16T17:16:51.305Z,32.57
2017-11-16T17:19:19.697Z,34.07
2017-11-16T17:21:52.578Z,31.67
2017-11-16T17:24:20.778Z,31.77
2017-11-16T17:26:48.212Z,28.63
2017-11-16T17:29:16.414Z,32.67
2017-11-16T17:31:46.425Z,29.90
2017-11-16T17:34:13.870Z,30.03
2017-11-16T17:36:44.935Z,28.30
2017-11-16T17:39:12.933Z,28.93
2017-11-16T17:41:41.067Z,28.10
2017-11-16T17:44:09.801Z,27.63
2017-11-16T17:46:37.226Z,26.07
2017-11-16T17:49:04.657Z,27.27
2017-11-16T17:51:33.095Z,29.37
2017-11-16T17:54:00.998Z,27.50
2017-11-16T17:56:29.184Z,26.80
2017-11-16T17:58:56.613Z,27.60
2017-11-16T18:01:24.050Z,28.57
2017-11-16T18:03:52.455Z,27.50
2017-11-16T18:06:19.891Z,28.10
2017-11-16T18:08:47.312Z,27.20
2017-11-16T18:11:14.737Z,26.43
2017-11-16T18:13:42.953Z,27.90
2017-11-16T18:16:10.382Z,25.60
2017-11-16T18:18:37.809Z,25.40
2017-11-16T18:21:05.246Z,24.27
2017-11-16T18:23:32.674Z,24.87
2017-11-16T18:26:00.115Z,24.33
2017-11-16T18:28:27.535Z,26.03
2017-11-16T18:30:54.973Z,25.30
2017-11-16T18:33:22.389Z,26.80
2017-11-16T18:35:49.930Z,25.17
2017-11-16T18:38:18.127Z,24.60
2017-11-16T18:40:45.550Z,25.33
2017-11-16T18:43:14.281Z,26.37
2017-11-16T18:45:42.293Z,28.33
2017-11-16T18:48:09.729Z,28.70
2017-11-16T18:50:37.150Z,29.47
2017-11-16T18:53:04.869Z,30.90
2017-11-16T18:55:35.925Z,29.20
2017-11-16T18:58:04.135Z,26.70
2017-11-16T19:00:31.532Z,27.80
2017-11-16T19:02:58.957Z,26.80
2017-11-16T19:05:26.377Z,26.67
2017-11-16T19:07:54.572Z,25.23
2017-11-16T19:10:21.993Z,25.43
2017-11-16T19:12:49.818Z,25.00
2017-11-16T19:15:17.228Z,25.07
2017-11-16T19:17:45.421Z,23.37
2017-11-16T19:20:13.047Z,22.23
2017-11-16T19:22:40.456Z,22.87
2017-11-16T19:25:07.881Z,22.73
2017-11-16T19:27:36.083Z,22.27
2017-11-16T19:30:03.502Z,23.70
2017-11-16T19:32:31.711Z,21.83
2017-11-16T19:34:59.135Z,21.90
2017-11-16T19:37:27.722Z,21.70
2017-11-16T19:39:55.913Z,22.03
2017-11-16T19:42:34.369Z,20.37
2017-11-16T19:45:01.814Z,20.73
2017-11-16T19:47:29.242Z,19.93
2017-11-16T19:49:56.669Z,19.03
2017-11-16T19:52:24.101Z,18.70
2017-11-16T19:54:51.517Z,17.93
2017-11-16T19:57:18.937Z,17.37
2017-11-16T19:59:46.364Z,19.50
2017-11-16T20:02:13.785Z,18.27
2017-11-16T20:04:41.980Z,18.67
2017-11-16T20:07:09.823Z,18.07
2017-11-16T20:09:37.677Z,20.53
2017-11-16T20:12:08.465Z,20.00
2017-11-16T20:14:36.000Z,19.77
2017-11-16T20:17:04.169Z,20.43
2017-11-16T20:19:31.598Z,19.10
2017-11-16T20:22:05.513Z,20.17
2017-11-16T20:24:33.489Z,18.60
2017-11-16T20:27:00.902Z,20.10
2017-11-16T20:29:28.880Z,19.57
2017-11-16T20:31:56.701Z,20.70
2017-11-16T20:34:24.138Z,19.60
2017-11-16T20:40:04.302Z,19.33
2017-11-16T20:42:38.398Z,19.43
2017-11-16T20:45:11.617Z,20.03
2017-11-16T20:47:44.818Z,18.63
2017-11-16T20:53:21.443Z,20.33
2017-11-16T20:55:48.887Z,22.00
2017-11-16T20:58:16.754Z,22.47
2017-11-16T21:00:44.514Z,22.13
2017-11-16T21:03:11.958Z,21.80
2017-11-16T21:05:39.386Z,22.07
2017-11-16T21:08:08.023Z,21.73
2017-11-16T21:10:35.462Z,21.37
2017-11-16T21:13:02.890Z,21.43
2017-11-16T21:15:31.482Z,23.97
2017-11-16T21:17:59.662Z,24.80
2017-11-16T21:20:27.656Z,22.50
2017-11-16T21:22:55.089Z,22.60
2017-11-16T21:25:22.529Z,22.03
2017-11-16T21:27:50.741Z,22.23
2017-11-16T21:30:18.740Z,22.10
2017-11-16T21:32:46.183Z,22.53
2017-11-16T21:35:13.605Z,21.60
2017-11-16T21:37:41.033Z,22.37
2017-11-16T21:40:08.461Z,22.13
2017-11-16T21:42:36.330Z,21.30
2017-11-16T21:45:04.795Z,21.90
2017-11-16T21:47:32.219Z,21.77
2017-11-16T21:49:59.653Z,20.97
2017-11-16T21:52:31.372Z,21.20
2017-11-16T21:54:59.342Z,21.17
2017-11-16T21:57:26.793Z,21.40
2017-11-16T21:59:54.990Z,21.07
2017-11-16T22:02:22.431Z,22.70
2017-11-16T22:04:49.864Z,22.37
2017-11-16T22:07:17.294Z,21.13
2017-11-16T22:09:45.499Z,20.57
2017-11-16T22:12:12.943Z,22.47
2017-11-16T22:14:40.811Z,23.23
2017-11-16T22:17:09.071Z,21.00
2017-11-16T22:19:36.472Z,23.73
2017-11-16T22:22:03.914Z,21.60
2017-11-16T22:24:31.883Z,22.70
2017-11-16T22:27:00.689Z,23.27
2017-11-16T22:29:30.494Z,22.57
2017-11-16T22:31:57.918Z,22.83
2017-11-16T22:34:25.877Z,22.70
2017-11-16T22:36:57.590Z,22.50
2017-11-16T22:39:25.021Z,21.67
2017-11-16T22:41:52.475Z,21.83
2017-11-16T22:44:19.913Z,23.87
2017-11-16T22:46:49.875Z,22.03
2017-11-16T22:49:17.303Z,20.80
2017-11-16T22:51:44.733Z,19.97
2017-11-16T22:54:12.937Z,20.73
2017-11-16T22:56:40.485Z,21.00
2017-11-16T22:59:07.936Z,21.70
2017-11-16T23:01:35.377Z,21.57
2017-11-16T23:04:03.581Z,21.67
2017-11-16T23:06:31.713Z,21.23
2017-11-16T23:08:59.918Z,23.53
2017-11-16T23:11:28.163Z,22.80
2017-11-16T23:13:55.617Z,23.27
2017-11-16T23:16:23.033Z,21.90
2017-11-16T23:18:50.466Z,21.47
2017-11-16T23:21:17.897Z,22.20
2017-11-16T23:23:46.365Z,23.73
2017-11-16T23:26:13.788Z,24.07
2017-11-16T23:28:41.225Z,23.93
2017-11-16T23:31:08.664Z,24.53
2017-11-16T23:33:36.100Z,24.17
2017-11-16T23:36:04.304Z,25.13
2017-11-16T23:38:32.284Z,25.97
2017-11-16T23:40:59.726Z,27.40
2017-11-16T23:43:27.175Z,26.97
2017-11-16T23:45:55.374Z,25.83
2017-11-16T23:48:23.213Z,26.60
2017-11-16T23:50:51.819Z,26.40
2017-11-16T23:53:21.020Z,24.73
2017-11-16T23:55:49.479Z,25.97
2017-11-16T23:58:17.687Z,24.60
